Coober Pedy, South Australia

2:43 AM ACST on August 28, 2016 (GMT +0930)
Coober Pedy | | Change Station

Elev 663 ft 29.00 °S, 134.76 °E | Updated 23 seconds ago

Clear
Clear
53.2 °F
Feels Like 53.2 °F
N
5.6
Wind Variable Wind from ESE
Gusts 7.4 mph

Today
High -- | Low -- °F
--% Chance of Precip.
Yesterday
High -- | Low -- °F
Precip. -- in
Pressure 29.98 in
Visibility 6.2 miles
Clouds
Dew Point 13 °F
Humidity 20%
Rainfall 0.00 in
Snow Depth Not available.
6:50 AM 6:14 PM
Waning Crescent, 23% visible
METAR YCBP 271700Z AUTO 03015KT 9999 // NCD 12/00 Q1015
Pressure 29.98 in
Visibility 6.2 miles
Clouds
Dew Point 13 °F
Humidity 20%
Rainfall 0.00 in
Snow Depth Not available.
6:50 AM 6:14 PM
Waning Crescent, 23% visible
METAR YCBP 271700Z AUTO 03015KT 9999 // NCD 12/00 Q1015

10-Day Weather Forecast

No radar image for this location.
×

Almanac

Astronomy

Aug. 28, 2016 Rise Set
Actual Time
Civil Twilight
Nautical Twilight
Astronomical Twilight
Moon
Length of Visible Light
Length of Day
Tomorrow will be .
, % of the Moon is Illuminated

Today's Extremes

Country Highs Country Lows

Community

WunderPhotos

Upload Photos

1,935,386 photos uploaded!

WunderBlog® & News

Nearby

Air Quality

  Air Quality AQ Index Pollutant
Not available.

Snow Depth

Station Depth Elevation

Earthquake Activity

City Distance Mag. Time & Date
Minimum magnitude displayed is 2.5.

Coastal Water Temperatures

Place Temperature

Stations

Nearby Weather Stations

Station Location Temp. Windchill Dew Point Humidity Wind Precip. Elev Updated Type